Terminal Aerodrome Forecast
Issued by NWS Cleveland, OH

Home | Current Version | Previous Version | Text Only | Print | Product List | Glossary Off
Versions: 1 2 3 4 5 6 7 8 9 10 11 12 13 14 15 16 17 18 19 20 21 22

000
FTUS41 KCLE 031700
TAFYNG
TAF
KYNG 031733Z 0318/0418 15012KT 4SM -FZRASNPL BR BKN030 OVC050
     FM032100 18008KT 5SM -RA BR OVC030 WS020/23045KT
      TEMPO 0321/0323 2SM -RA BR OVC005
     FM040300 21014G20KT 4SM -SHRA BR OVC006
     FM040900 28012KT 4SM -SN BR OVC012=

USA.gov is the U.S. government's official web portal to all federal, state and local government web resources and services.